Time;durP1;ratioP1;P1;durP2;ratioP2;P2;SDS_P1;SDS_P2;PMS_P1;PMS_P2;Temp;Humidity;BMP_temperature;BMP_pressure;BME280_temperature;BME280_humidity;BME280_pressure;Samples;Min_cycle;Max_cycle;Signal;HPM_P1;HPM_P2
2022/02/26 00:00:30;;;;;;;4.88;1.63;;;4.10;1.00;;;;;;5037333;28;20511;-74
2022/02/26 00:02:56;;;;;;;3.50;1.10;;;4.40;1.00;;;;;;5037770;28;20033;-74
2022/02/26 00:05:22;;;;;;;3.75;1.13;;;4.60;1.00;;;;;;5037952;28;20056;-74
2022/02/26 00:07:48;;;;;;;2.30;1.15;;;4.50;1.00;;;;;;5037462;28;20037;-74
2022/02/26 00:10:14;;;;;;;6.65;3.25;;;5.30;1.00;;;;;;5038101;28;20048;-74
2022/02/26 00:12:40;;;;;;;8.57;2.40;;;5.20;1.00;;;;;;5037671;28;20041;-74
2022/02/26 00:15:06;;;;;;;9.70;3.47;;;4.90;1.00;;;;;;5037364;28;20038;-74
2022/02/26 00:17:34;;;;;;;11.38;4.07;;;4.60;1.00;;;;;;5037486;28;20044;-74
2022/02/26 00:20:00;;;;;;;8.75;3.00;;;4.40;1.00;;;;;;5038385;28;20144;-74
2022/02/26 00:22:26;;;;;;;6.30;2.33;;;4.30;1.00;;;;;;5037441;28;20544;-74
2022/02/26 00:24:51;;;;;;;2.72;0.95;;;4.20;1.00;;;;;;5037383;28;20488;-74
2022/02/26 00:27:17;;;;;;;5.35;1.65;;;4.50;1.00;;;;;;5037106;28;20041;-74
2022/02/26 00:29:43;;;;;;;4.55;1.13;;;4.50;1.00;;;;;;5036853;28;20033;-74
2022/02/26 00:32:09;;;;;;;2.13;0.75;;;4.90;1.00;;;;;;5037331;28;20041;-74
2022/02/26 00:34:35;;;;;;;8.65;1.50;;;4.90;1.00;;;;;;5036945;28;20129;-74
2022/02/26 00:37:00;;;;;;;6.63;2.75;;;4.80;1.00;;;;;;5036888;28;20057;-74
2022/02/26 00:39:26;;;;;;;9.15;3.05;;;4.50;1.00;;;;;;5037477;28;20121;-74
2022/02/26 00:41:52;;;;;;;3.92;1.20;;;4.70;1.00;;;;;;5036624;28;20041;-74
2022/02/26 00:44:18;;;;;;;3.63;1.52;;;5.40;1.00;;;;;;5036923;28;20072;-74
2022/02/26 00:46:45;;;;;;;2.72;0.85;;;5.50;1.00;;;;;;5036756;28;20052;-74
2022/02/26 00:51:57;;;;;;;4.80;1.20;;;5.60;1.00;;;;;;5036605;28;20399;-74
2022/02/26 00:54:23;;;;;;;6.57;1.95;;;5.40;1.00;;;;;;5036892;28;20116;-74
2022/02/26 00:56:49;;;;;;;3.88;1.35;;;5.40;1.00;;;;;;5036494;28;20041;-74
2022/02/26 00:59:15;;;;;;;3.53;0.85;;;5.60;1.00;;;;;;5036414;28;20045;-74
2022/02/26 01:01:41;;;;;;;3.28;0.90;;;5.70;1.00;;;;;;5036787;28;20030;-74
2022/02/26 01:04:08;;;;;;;3.55;1.05;;;5.70;1.00;;;;;;5036758;28;20041;-74
2022/02/26 01:06:34;;;;;;;6.15;1.02;;;5.70;1.00;;;;;;5036978;28;20127;-74
2022/02/26 01:09:01;;;;;;;4.53;0.98;;;5.50;1.00;;;;;;5036922;28;20045;-74
2022/02/26 01:11:26;;;;;;;4.40;1.20;;;5.40;1.00;;;;;;5036470;28;20116;-74
2022/02/26 01:13:52;;;;;;;4.32;1.05;;;5.50;1.00;;;;;;5036833;28;20072;-74
2022/02/26 01:16:18;;;;;;;3.88;0.85;;;5.40;1.00;;;;;;5036528;28;20048;-74
2022/02/26 01:18:44;;;;;;;7.25;1.30;;;5.50;1.00;;;;;;5036752;28;20041;-74
2022/02/26 01:21:10;;;;;;;9.65;2.60;;;5.40;1.00;;;;;;5036539;28;20039;-74
2022/02/26 01:23:36;;;;;;;5.60;1.38;;;5.20;1.00;;;;;;5036541;28;20073;-74
2022/02/26 01:26:03;;;;;;;8.18;1.20;;;5.40;1.00;;;;;;5036475;28;20408;-74
2022/02/26 01:28:29;;;;;;;7.03;1.20;;;5.20;1.00;;;;;;5036561;28;20047;-74
2022/02/26 01:30:55;;;;;;;8.43;1.08;;;5.20;1.00;;;;;;5036265;28;20124;-74
2022/02/26 01:33:20;;;;;;;8.85;1.92;;;5.30;1.00;;;;;;5036122;28;20120;-74
2022/02/26 01:35:46;;;;;;;4.80;1.25;;;5.00;1.00;;;;;;5036423;28;20044;-74
2022/02/26 01:38:12;;;;;;;6.72;1.63;;;4.80;1.00;;;;;;5036938;28;20041;-74
2022/02/26 01:40:38;;;;;;;10.73;3.95;;;4.70;1.00;;;;;;5036043;28;20041;-72
2022/02/26 01:43:04;;;;;;;8.57;2.20;;;4.70;1.00;;;;;;5035981;28;20396;-72
2022/02/26 01:45:30;;;;;;;8.43;3.08;;;4.70;1.00;;;;;;5036084;28;20503;-72
2022/02/26 01:47:56;;;;;;;6.45;1.52;;;4.70;1.00;;;;;;5035776;28;20045;-72
2022/02/26 01:50:22;;;;;;;7.05;2.30;;;4.90;1.00;;;;;;5036311;28;20041;-72
2022/02/26 01:52:49;;;;;;;9.30;2.05;;;4.90;1.00;;;;;;5035675;28;20095;-72
2022/02/26 01:55:15;;;;;;;6.82;2.88;;;4.90;1.00;;;;;;5035649;28;20040;-73
2022/02/26 01:57:42;;;;;;;7.80;2.17;;;4.80;1.00;;;;;;5035926;28;20045;-74
2022/02/26 02:00:11;;;;;;;7.07;1.40;;;4.70;1.00;;;;;;5035330;28;20053;-74
2022/02/26 02:02:37;;;;;;;5.60;1.52;;;4.90;1.00;;;;;;5035882;28;20095;-74
2022/02/26 02:05:03;;;;;;;8.35;2.80;;;5.10;1.00;;;;;;5035277;28;20041;-74
2022/02/26 02:07:29;;;;;;;4.50;1.40;;;5.00;1.00;;;;;;5035256;28;20041;-74
2022/02/26 02:09:55;;;;;;;3.65;1.13;;;4.90;1.00;;;;;;5035619;28;20072;-74
2022/02/26 02:12:22;;;;;;;6.93;1.50;;;4.90;1.00;;;;;;5035442;28;20492;-74
2022/02/26 02:14:48;;;;;;;6.13;1.15;;;4.80;1.00;;;;;;5035183;28;20044;-74
2022/02/26 02:17:14;;;;;;;6.55;1.83;;;5.00;1.00;;;;;;5035336;28;20041;-74
2022/02/26 02:19:41;;;;;;;6.38;2.08;;;4.80;1.00;;;;;;5035146;28;20041;-74
2022/02/26 02:22:07;;;;;;;5.90;1.40;;;4.80;1.00;;;;;;5035248;28;20124;-73
2022/02/26 02:24:34;;;;;;;7.75;1.20;;;4.80;1.00;;;;;;5035414;28;20041;-74
2022/02/26 02:27:02;;;;;;;6.35;1.50;;;4.80;1.00;;;;;;5035479;28;20488;-74
2022/02/26 02:29:28;;;;;;;2.80;1.15;;;4.70;1.00;;;;;;5017223;28;20400;-74
2022/02/26 02:31:55;;;;;;;7.43;1.13;;;4.70;1.00;;;;;;5035124;28;20045;-74
2022/02/26 02:34:21;;;;;;;5.10;1.15;;;4.50;1.00;;;;;;5035053;28;20038;-73
2022/02/26 02:36:47;;;;;;;2.20;0.70;;;3.90;1.00;;;;;;5034638;28;20072;-74
2022/02/26 02:39:14;;;;;;;3.55;1.30;;;3.50;1.00;;;;;;5034681;28;20041;-74
2022/02/26 02:41:41;;;;;;;3.78;0.80;;;3.20;1.00;;;;;;5034987;28;20029;-74
2022/02/26 02:44:07;;;;;;;4.65;0.98;;;2.90;1.00;;;;;;5034740;28;20499;-74
2022/02/26 02:46:34;;;;;;;6.70;1.00;;;2.70;1.00;;;;;;5034318;28;20038;-74
2022/02/26 02:49:00;;;;;;;4.47;0.80;;;2.40;1.00;;;;;;5035318;28;20034;-74
2022/02/26 02:51:26;;;;;;;5.22;1.13;;;2.20;1.00;;;;;;5034841;28;20060;-74
2022/02/26 02:53:52;;;;;;;17.67;12.43;;;2.20;1.00;;;;;;5034476;28;20037;-74
2022/02/26 02:56:18;;;;;;;4.50;1.15;;;2.10;1.00;;;;;;5034519;28;20037;-74
2022/02/26 02:58:44;;;;;;;4.10;1.00;;;2.10;1.00;;;;;;5034360;28;20088;-74
2022/02/26 03:01:10;;;;;;;2.78;0.80;;;2.00;1.00;;;;;;5034069;28;20125;-74
2022/02/26 03:03:36;;;;;;;4.90;1.65;;;2.00;1.00;;;;;;5034419;28;20041;-74
2022/02/26 03:06:02;;;;;;;3.50;0.98;;;1.90;1.00;;;;;;5033348;28;20048;-74
2022/02/26 03:08:28;;;;;;;6.05;1.75;;;1.80;1.00;;;;;;5034282;28;20049;-74
2022/02/26 03:10:55;;;;;;;4.50;1.25;;;1.80;1.00;;;;;;5034397;28;20090;-74
2022/02/26 03:13:23;;;;;;;6.35;1.23;;;1.70;1.00;;;;;;5034233;28;20041;-74
2022/02/26 03:15:50;;;;;;;7.28;1.08;;;1.60;1.00;;;;;;5034226;28;20049;-74
2022/02/26 03:18:17;;;;;;;6.28;1.23;;;1.50;1.00;;;;;;5034138;28;20045;-74
2022/02/26 03:20:43;;;;;;;4.47;1.17;;;1.50;1.00;;;;;;5016426;28;20038;-74
2022/02/26 03:23:09;;;;;;;6.25;1.60;;;1.40;1.00;;;;;;5034362;28;20033;-74
2022/02/26 03:25:35;;;;;;;5.35;1.27;;;1.30;1.00;;;;;;5034196;28;20045;-74
2022/02/26 03:28:01;;;;;;;5.93;1.20;;;1.40;1.00;;;;;;5034069;28;20033;-74
2022/02/26 03:30:27;;;;;;;4.40;1.63;;;1.30;1.00;;;;;;5034016;28;20052;-74
2022/02/26 03:32:53;;;;;;;5.13;1.42;;;1.30;1.00;;;;;;5034327;28;20396;-74
2022/02/26 03:35:19;;;;;;;7.85;1.42;;;1.30;1.00;;;;;;5034187;28;20557;-74
2022/02/26 03:37:45;;;;;;;3.65;1.20;;;1.30;1.00;;;;;;5033851;28;20052;-74
2022/02/26 03:40:12;;;;;;;5.18;1.08;;;1.20;1.00;;;;;;5034177;28;20041;-74
2022/02/26 03:42:38;;;;;;;7.85;1.38;;;1.10;1.00;;;;;;5033916;28;20496;-74
2022/02/26 03:45:05;;;;;;;6.75;1.38;;;1.00;1.00;;;;;;5034040;28;20083;-74
2022/02/26 03:47:31;;;;;;;6.50;1.45;;;1.00;1.00;;;;;;5034202;28;20041;-74
2022/02/26 03:49:57;;;;;;;7.35;1.55;;;1.10;1.00;;;;;;5034329;28;20048;-74
2022/02/26 03:52:23;;;;;;;7.53;1.70;;;1.10;1.00;;;;;;5033896;28;20365;-74
2022/02/26 03:54:50;;;;;;;8.38;1.75;;;1.00;1.00;;;;;;5034035;28;20048;-74
2022/02/26 03:57:16;;;;;;;5.15;1.17;;;1.00;1.00;;;;;;5033852;28;20052;-74
2022/02/26 03:59:42;;;;;;;7.47;1.42;;;1.00;1.00;;;;;;5033948;28;20057;-74
2022/02/26 04:02:08;;;;;;;6.43;1.38;;;1.10;1.00;;;;;;5034231;28;20068;-74
2022/02/26 04:04:35;;;;;;;7.40;1.98;;;0.90;1.00;;;;;;5034321;28;20468;-74
2022/02/26 04:07:02;;;;;;;5.88;1.40;;;1.00;1.00;;;;;;5034645;28;20065;-74
2022/02/26 04:09:28;;;;;;;10.25;1.90;;;0.90;1.00;;;;;;5034148;28;20041;-74
2022/02/26 04:11:54;;;;;;;8.05;1.55;;;0.90;1.00;;;;;;5034252;28;20092;-74
2022/02/26 04:14:20;;;;;;;5.68;0.98;;;0.60;1.00;;;;;;5034313;28;20045;-74
2022/02/26 04:16:46;;;;;;;5.45;1.17;;;0.60;1.00;;;;;;5034211;28;20033;-74
2022/02/26 04:19:11;;;;;;;3.60;1.30;;;0.60;1.00;;;;;;5038275;28;20045;-74
2022/02/26 04:21:37;;;;;;;7.55;1.77;;;0.50;1.00;;;;;;5037580;28;20095;-72
2022/02/26 04:24:03;;;;;;;2.90;1.05;;;0.40;1.00;;;;;;5037531;28;20041;-73
2022/02/26 04:26:29;;;;;;;9.02;2.00;;;0.50;1.00;;;;;;5037432;28;20499;-74
2022/02/26 04:28:55;;;;;;;8.75;1.80;;;0.40;1.00;;;;;;5037348;28;20116;-74
2022/02/26 04:31:22;;;;;;;5.20;1.48;;;0.30;1.00;;;;;;5037228;28;20073;-74
2022/02/26 04:33:48;;;;;;;3.00;1.17;;;0.40;1.00;;;;;;5037432;28;20507;-74
2022/02/26 04:36:15;;;;;;;7.05;1.10;;;0.40;1.00;;;;;;5037231;28;20118;-74
2022/02/26 04:38:41;;;;;;;4.93;1.60;;;0.30;1.00;;;;;;5037274;28;20049;-74
2022/02/26 04:41:07;;;;;;;5.20;1.10;;;0.20;1.00;;;;;;5038092;28;20037;-74
2022/02/26 04:43:38;;;;;;;4.35;1.33;;;0.10;1.00;;;;;;5037162;28;20071;-74
2022/02/26 04:46:04;;;;;;;3.92;1.27;;;0.10;1.00;;;;;;5037320;28;20124;-74
2022/02/26 04:48:31;;;;;;;4.60;1.58;;;0.30;1.00;;;;;;5037058;28;20037;-74
2022/02/26 04:50:57;;;;;;;5.70;1.60;;;0.30;1.00;;;;;;5037887;28;20053;-74
2022/02/26 04:53:23;;;;;;;6.75;1.50;;;0.30;1.00;;;;;;5037254;28;20042;-74
2022/02/26 04:55:50;;;;;;;6.32;1.70;;;0.10;1.00;;;;;;5036815;28;20476;-74
2022/02/26 04:58:17;;;;;;;4.28;1.80;;;0.00;1.00;;;;;;5036991;28;20037;-74
2022/02/26 05:00:43;;;;;;;6.68;1.30;;;0.00;1.00;;;;;;5036522;28;20053;-74
2022/02/26 05:03:09;;;;;;;4.10;1.27;;;0.00;1.00;;;;;;5037139;28;20037;-74
2022/02/26 05:05:35;;;;;;;5.32;1.73;;;-0.20;1.00;;;;;;5036709;28;20132;-74
2022/02/26 05:08:02;;;;;;;6.05;1.38;;;-0.10;1.00;;;;;;5036699;28;20069;-73
2022/02/26 05:10:27;;;;;;;10.02;2.13;;;-0.10;1.00;;;;;;5036965;28;20126;-74
2022/02/26 05:12:53;;;;;;;7.70;1.60;;;-0.20;1.00;;;;;;5036557;28;20574;-74
2022/02/26 05:15:19;;;;;;;6.90;1.60;;;-0.30;1.00;;;;;;5036321;28;20496;-74
2022/02/26 05:17:45;;;;;;;6.22;1.40;;;-0.20;1.00;;;;;;5037061;28;20136;-74
2022/02/26 05:20:12;;;;;;;6.13;1.40;;;-0.20;1.00;;;;;;5036910;28;20095;-74
2022/02/26 05:22:39;;;;;;;6.63;1.70;;;-0.30;1.00;;;;;;5036189;28;20045;-74
2022/02/26 05:25:07;;;;;;;5.50;1.60;;;-0.40;1.00;;;;;;5036259;28;20095;-74
2022/02/26 05:27:32;;;;;;;9.80;1.75;;;-0.40;1.00;;;;;;5036021;28;20558;-74
2022/02/26 05:29:58;;;;;;;5.07;1.60;;;-0.40;1.00;;;;;;5035176;28;20045;-74
2022/02/26 05:32:24;;;;;;;10.18;1.70;;;-0.40;1.00;;;;;;5035770;28;20408;-74
2022/02/26 05:34:51;;;;;;;4.35;1.48;;;-0.30;1.00;;;;;;5035875;28;20042;-74
2022/02/26 05:37:18;;;;;;;8.18;1.90;;;-0.20;1.00;;;;;;5036059;28;20048;-74
2022/02/26 05:39:44;;;;;;;6.18;1.73;;;-0.20;1.00;;;;;;5035933;28;20044;-74
2022/02/26 05:42:10;;;;;;;7.13;1.60;;;-0.30;1.00;;;;;;5018302;28;20041;-74
2022/02/26 05:44:36;;;;;;;8.02;1.23;;;-0.30;1.00;;;;;;5035817;28;20037;-74
2022/02/26 05:47:02;;;;;;;4.50;1.40;;;-0.50;1.00;;;;;;5035650;28;20060;-74
2022/02/26 05:49:28;;;;;;;4.63;1.50;;;-0.50;1.00;;;;;;5035570;28;20056;-74
2022/02/26 05:51:54;;;;;;;4.82;1.30;;;-0.40;1.00;;;;;;5035788;28;20037;-74
2022/02/26 05:54:19;;;;;;;4.38;1.42;;;-0.40;1.00;;;;;;5035490;28;20033;-73
2022/02/26 05:56:45;;;;;;;7.18;3.05;;;-0.40;1.00;;;;;;5035384;28;20037;-74
2022/02/26 05:59:11;;;;;;;4.70;1.70;;;-0.50;1.00;;;;;;5035625;28;20041;-74
2022/02/26 06:01:37;;;;;;;7.57;1.92;;;-0.60;1.00;;;;;;5036324;28;20112;-74
2022/02/26 06:04:03;;;;;;;8.00;1.77;;;-0.70;1.00;;;;;;5035908;28;20112;-74
2022/02/26 06:06:29;;;;;;;7.05;1.60;;;-0.80;1.00;;;;;;5035527;28;20578;-74
2022/02/26 06:08:55;;;;;;;5.07;1.63;;;-0.70;1.00;;;;;;5035813;28;20045;-74
2022/02/26 06:11:21;;;;;;;4.85;1.63;;;-0.70;1.00;;;;;;5035726;28;20119;-74
2022/02/26 06:13:47;;;;;;;6.82;1.85;;;-0.60;1.00;;;;;;5035763;28;20075;-74
2022/02/26 06:16:14;;;;;;;6.22;1.83;;;-0.60;1.00;;;;;;5035062;28;20041;-74
2022/02/26 06:18:40;;;;;;;10.95;1.90;;;-0.60;1.00;;;;;;5036182;28;20100;-74
2022/02/26 06:21:06;;;;;;;4.47;1.80;;;-0.80;1.00;;;;;;5035648;28;20041;-73
2022/02/26 06:23:31;;;;;;;8.68;2.00;;;-0.80;1.00;;;;;;5035548;28;20482;-74
2022/02/26 06:25:57;;;;;;;12.88;1.80;;;-0.80;1.00;;;;;;5035653;28;20048;-74
2022/02/26 06:28:23;;;;;;;8.80;2.25;;;-0.80;1.00;;;;;;5035514;28;20041;-74
2022/02/26 06:30:49;;;;;;;7.68;2.53;;;-0.70;1.00;;;;;;5034866;28;20049;-74
2022/02/26 06:33:16;;;;;;;7.63;2.05;;;-0.80;1.00;;;;;;5035384;28;20038;-74
2022/02/26 06:35:43;;;;;;;6.03;1.88;;;-0.90;1.00;;;;;;5034991;28;20487;-74
2022/02/26 06:38:09;;;;;;;11.25;2.35;;;-0.90;1.00;;;;;;5035239;28;20037;-73
2022/02/26 06:40:35;;;;;;;6.32;2.08;;;-0.80;1.00;;;;;;5035052;28;20055;-74
2022/02/26 06:43:01;;;;;;;7.32;2.45;;;-0.90;1.00;;;;;;5034978;28;20033;-73
2022/02/26 06:45:27;;;;;;;8.00;2.08;;;-1.00;1.00;;;;;;5034742;28;20099;-74
2022/02/26 06:47:53;;;;;;;7.85;2.10;;;-0.90;1.00;;;;;;5035162;28;20041;-74
2022/02/26 06:50:19;;;;;;;7.18;2.05;;;-0.90;1.00;;;;;;5035160;28;20072;-74
2022/02/26 06:52:45;;;;;;;4.80;1.60;;;-0.80;1.00;;;;;;5034827;28;20041;-74
2022/02/26 06:55:11;;;;;;;11.82;1.90;;;-0.80;1.00;;;;;;5034652;28;20514;-72
2022/02/26 06:57:37;;;;;;;7.25;1.48;;;-0.80;1.00;;;;;;5034713;28;20041;-73
2022/02/26 07:00:05;;;;;;;9.07;1.92;;;-0.70;1.00;;;;;;5034531;28;20140;-74
2022/02/26 07:02:32;;;;;;;7.88;1.80;;;-0.80;1.00;;;;;;5034516;28;20069;-73
2022/02/26 07:04:58;;;;;;;5.82;1.85;;;-0.90;1.00;;;;;;5034658;28;20041;-73
2022/02/26 07:07:23;;;;;;;7.78;2.10;;;-0.80;1.00;;;;;;5034512;28;20068;-73
2022/02/26 07:09:49;;;;;;;7.25;2.03;;;-0.70;1.00;;;;;;5034728;28;20041;-73
2022/02/26 07:12:18;;;;;;;11.45;3.13;;;-0.70;1.00;;;;;;5034571;28;20480;-73
2022/02/26 07:14:44;;;;;;;8.82;3.35;;;-0.80;1.00;;;;;;5034841;28;20128;-74
2022/02/26 07:17:10;;;;;;;8.73;2.00;;;-0.80;1.00;;;;;;5034702;28;20472;-73
2022/02/26 07:19:36;;;;;;;9.07;2.42;;;-0.70;1.00;;;;;;5034762;28;20069;-73
2022/02/26 07:22:03;;;;;;;5.43;1.98;;;-0.60;1.00;;;;;;5034249;28;20119;-74
2022/02/26 07:24:29;;;;;;;5.25;1.60;;;-0.60;1.00;;;;;;5034603;28;20104;-73
2022/02/26 07:26:55;;;;;;;4.80;2.03;;;-0.60;1.00;;;;;;5034676;28;20146;-73
2022/02/26 07:29:21;;;;;;;6.35;2.25;;;-0.60;1.00;;;;;;5034510;28;20037;-73
2022/02/26 07:31:46;;;;;;;8.43;3.00;;;-0.50;1.00;;;;;;5034675;28;20041;-73
2022/02/26 07:34:12;;;;;;;16.58;4.72;;;-0.30;1.00;;;;;;5016774;28;20428;-73
2022/02/26 07:36:38;;;;;;;8.60;3.35;;;-0.20;1.00;;;;;;5034197;28;20095;-73
2022/02/26 07:39:04;;;;;;;10.18;2.78;;;-0.20;1.00;;;;;;5034290;28;20033;-73
2022/02/26 07:41:31;;;;;;;9.27;2.75;;;-0.30;1.00;;;;;;5034339;28;20048;-72
2022/02/26 07:43:57;;;;;;;9.63;2.50;;;-0.20;1.00;;;;;;5031198;28;20046;-73
2022/02/26 07:46:23;;;;;;;8.07;2.00;;;-0.10;1.00;;;;;;5026737;28;20451;-74
2022/02/26 07:48:49;;;;;;;9.50;2.13;;;0.00;1.00;;;;;;5022966;28;20068;-73
2022/02/26 07:51:15;;;;;;;8.02;2.03;;;0.00;1.00;;;;;;5033855;28;20480;-73
2022/02/26 07:53:42;;;;;;;6.22;2.45;;;0.10;1.00;;;;;;5037711;28;20033;-73
2022/02/26 07:56:09;;;;;;;9.68;2.75;;;0.10;1.00;;;;;;5037850;28;20045;-73
2022/02/26 07:58:35;;;;;;;9.07;2.67;;;0.10;1.00;;;;;;5038536;28;20037;-73
2022/02/26 08:01:00;;;;;;;6.93;2.20;;;0.20;1.00;;;;;;5037696;28;20064;-73
2022/02/26 08:03:26;;;;;;;6.72;2.90;;;0.30;1.00;;;;;;5037858;28;20133;-73
2022/02/26 08:05:52;;;;;;;7.70;2.58;;;0.30;1.00;;;;;;5037646;28;20077;-73
2022/02/26 08:08:18;;;;;;;21.02;11.60;;;0.40;1.00;;;;;;5037746;28;20124;-73
2022/02/26 08:10:44;;;;;;;17.55;10.30;;;0.50;1.00;;;;;;5032040;28;20041;-73
2022/02/26 08:13:10;;;;;;;9.20;4.25;;;0.60;1.00;;;;;;5038014;28;20128;-74
2022/02/26 08:15:37;;;;;;;7.53;2.58;;;0.60;1.00;;;;;;5036808;28;20041;-73
2022/02/26 08:18:04;;;;;;;6.50;2.72;;;0.80;1.00;;;;;;5037539;28;20041;-73
2022/02/26 08:20:30;;;;;;;8.75;3.10;;;0.90;1.00;;;;;;5037692;28;20056;-73
2022/02/26 08:22:56;;;;;;;5.43;2.85;;;1.00;1.00;;;;;;5037817;28;20041;-73
2022/02/26 08:25:22;;;;;;;6.78;3.17;;;1.00;1.00;;;;;;5037710;28;20037;-73
2022/02/26 08:27:48;;;;;;;9.50;4.45;;;0.90;1.00;;;;;;5038003;28;20049;-73
2022/02/26 08:30:18;;;;;;;8.23;2.92;;;1.00;1.00;;;;;;5033729;28;20141;-72
2022/02/26 08:32:44;;;;;;;8.25;2.63;;;1.10;1.00;;;;;;5034524;28;20045;-74
2022/02/26 08:35:11;;;;;;;8.93;3.30;;;1.30;1.00;;;;;;5037827;28;20056;-73
2022/02/26 08:37:38;;;;;;;8.80;3.28;;;1.40;1.00;;;;;;5032813;28;20045;-77
2022/02/26 08:40:06;;;;;;;7.85;2.53;;;1.60;1.00;;;;;;5029064;28;20112;-74
2022/02/26 08:42:31;;;;;;;5.82;2.42;;;1.60;1.00;;;;;;5015388;28;20072;-74
2022/02/26 08:44:57;;;;;;;7.72;2.38;;;1.70;1.00;;;;;;5022316;28;20472;-74
2022/02/26 08:47:23;;;;;;;8.95;2.75;;;1.90;1.00;;;;;;5031306;28;20880;-73
2022/02/26 08:49:49;;;;;;;12.30;3.65;;;2.00;1.00;;;;;;5034064;28;20484;-73
2022/02/26 08:52:15;;;;;;;9.52;4.00;;;2.20;1.00;;;;;;5034742;28;20033;-73
2022/02/26 08:54:41;;;;;;;11.50;7.43;;;2.20;1.00;;;;;;5034156;28;20087;-73
2022/02/26 08:57:08;;;;;;;12.57;7.50;;;2.30;1.00;;;;;;5029634;28;20369;-73
2022/02/26 08:59:33;;;;;;;6.80;4.43;;;2.40;1.00;;;;;;5035283;28;20049;-74
2022/02/26 09:02:00;;;;;;;9.93;3.35;;;2.40;1.00;;;;;;5027540;28;20044;-76
2022/02/26 09:04:26;;;;;;;8.23;3.22;;;2.60;1.00;;;;;;5032051;28;20048;-75
2022/02/26 09:06:52;;;;;;;5.15;2.13;;;2.70;1.00;;;;;;5031242;28;20124;-75
2022/02/26 09:09:18;;;;;;;7.03;2.70;;;2.80;1.00;;;;;;5006556;28;20131;-77
2022/02/26 09:11:45;;;;;;;8.82;2.47;;;2.90;1.00;;;;;;5030287;28;20049;-75
2022/02/26 09:14:11;;;;;;;7.97;2.13;;;3.10;1.00;;;;;;5014042;28;20124;-74
2022/02/26 09:16:37;;;;;;;5.13;2.00;;;3.30;1.00;;;;;;5030999;28;20530;-75
2022/02/26 09:19:04;;;;;;;9.73;2.03;;;3.40;1.00;;;;;;5013759;28;20484;-75
2022/02/26 09:21:30;;;;;;;5.35;2.35;;;3.50;1.00;;;;;;5031561;28;20033;-76
2022/02/26 09:23:56;;;;;;;13.38;2.63;;;3.70;1.00;;;;;;5030263;28;20037;-74
2022/02/26 09:26:22;;;;;;;10.52;2.35;;;3.80;1.00;;;;;;5027064;28;20447;-74
2022/02/26 09:28:48;;;;;;;6.65;2.72;;;3.90;1.00;;;;;;5030090;28;20065;-73
2022/02/26 09:31:14;;;;;;;8.32;2.67;;;4.00;1.00;;;;;;5030709;28;20038;-74
2022/02/26 09:33:41;;;;;;;7.90;2.55;;;4.40;1.00;;;;;;5018773;28;20038;-71
2022/02/26 09:36:08;;;;;;;9.50;2.45;;;4.30;1.00;;;;;;5020140;28;20395;-70
2022/02/26 09:38:35;;;;;;;6.45;2.60;;;4.40;1.00;;;;;;5033432;28;20076;-70
2022/02/26 09:41:03;;;;;;;7.22;2.47;;;4.50;1.00;;;;;;5034386;28;20037;-70
2022/02/26 09:43:31;;;;;;;2.55;1.20;;;4.80;1.00;;;;;;5033836;28;20065;-71
2022/02/26 09:45:57;;;;;;;5.32;1.08;;;5.20;1.00;;;;;;5029443;28;20037;-70
2022/02/26 09:48:25;;;;;;;4.30;2.20;;;5.50;1.00;;;;;;5025101;28;20091;-71
2022/02/26 09:50:51;;;;;;;5.10;2.63;;;5.80;1.00;;;;;;5028119;28;20045;-71
2022/02/26 09:53:19;;;;;;;6.82;3.50;;;6.10;1.00;;;;;;5014057;28;20080;-71
2022/02/26 09:55:45;;;;;;;5.28;1.45;;;6.40;1.00;;;;;;5026120;28;20040;-70
2022/02/26 09:58:14;;;;;;;5.50;3.60;;;6.60;1.00;;;;;;5028978;28;20069;-71
2022/02/26 10:00:41;;;;;;;1.35;0.70;;;6.90;1.00;;;;;;5033444;28;20061;-71
2022/02/26 10:03:23;;;;;;;13.05;8.45;;;7.20;1.00;;;;;;5025611;28;20044;-72
2022/02/26 10:06:11;;;;;;;2.95;2.30;;;7.40;1.00;;;;;;5027149;28;20530;-71
2022/02/26 10:08:49;;;;;;;12.23;5.45;;;7.60;1.00;;;;;;5033441;28;20034;-71
2022/02/26 10:11:24;;;;;;;2.28;1.02;;;7.20;1.00;;;;;;5033439;28;20069;-71
2022/02/26 10:13:57;;;;;;;0.55;0.28;;;7.40;1.00;;;;;;5032956;28;20033;-71
2022/02/26 10:16:41;;;;;;;5.68;3.47;;;7.50;1.00;;;;;;5026443;28;20049;-72
2022/02/26 10:19:08;;;;;;;11.10;7.90;;;7.60;1.00;;;;;;5019962;28;20055;-72
2022/02/26 10:21:36;;;;;;;80.72;51.08;;;7.80;1.00;;;;;;5032446;28;20037;-71
2022/02/26 10:24:02;;;;;;;160.80;119.43;;;7.80;1.00;;;;;;5027645;28;20067;-71
2022/02/26 10:26:28;;;;;;;4.95;3.65;;;7.70;1.00;;;;;;5029988;28;20095;-72
2022/02/26 10:29:10;;;;;;;34.65;26.52;;;7.80;1.00;;;;;;5022117;28;20104;-72
2022/02/26 10:31:45;;;;;;;16.20;11.32;;;7.90;99.90;;;;;;5033390;28;20546;-72
2022/02/26 10:34:32;;;;;;;12.40;8.02;;;8.00;99.90;;;;;;5031792;28;20057;-72
2022/02/26 10:37:02;;;;;;;14.88;11.23;;;8.00;99.90;;;;;;5030405;28;20112;-72
2022/02/26 10:39:37;;;;;;;10.15;6.15;;;8.20;99.90;;;;;;5032679;28;20045;-72
2022/02/26 10:42:04;;;;;;;6.72;3.95;;;8.50;99.90;;;;;;5033133;28;20106;-72
2022/02/26 10:44:31;;;;;;;2.80;1.40;;;8.60;99.90;;;;;;5023406;28;20045;-71
2022/02/26 10:47:11;;;;;;;7.07;2.60;;;8.50;99.90;;;;;;5033117;28;20041;-71
2022/02/26 10:49:40;;;;;;;6.80;3.78;;;8.50;99.90;;;;;;5032235;28;20048;-72
2022/02/26 10:52:10;;;;;;;3.40;1.17;;;8.50;99.90;;;;;;5026963;28;20045;-72
2022/02/26 10:54:40;;;;;;;2.80;1.80;;;8.60;99.90;;;;;;5017255;28;20102;-72
2022/02/26 10:57:08;;;;;;;4.87;2.20;;;8.50;99.90;;;;;;5033105;28;20080;-72
2022/02/26 10:59:41;;;;;;;8.65;4.10;;;8.60;99.90;;;;;;5032776;28;20314;-72
2022/02/26 11:02:09;;;;;;;8.38;2.78;;;8.60;99.90;;;;;;5033105;28;20170;-72
2022/02/26 11:04:36;;;;;;;7.60;4.65;;;8.80;99.90;;;;;;5021291;28;20038;-72
2022/02/26 11:07:05;;;;;;;4.00;2.00;;;8.80;99.90;;;;;;5033250;28;20049;-72
2022/02/26 11:09:32;;;;;;;3.88;1.33;;;8.80;99.90;;;;;;5032876;28;20130;-72
2022/02/26 11:12:00;;;;;;;2.38;0.70;;;8.80;99.90;;;;;;5032960;28;20041;-72
2022/02/26 11:14:30;;;;;;;3.30;1.20;;;8.90;99.90;;;;;;5030902;28;20041;-72
2022/02/26 11:17:01;;;;;;;3.07;1.27;;;8.80;99.90;;;;;;5033098;28;20041;-72
2022/02/26 11:19:29;;;;;;;7.15;3.67;;;8.90;99.90;;;;;;5033174;28;20069;-72
2022/02/26 11:21:59;;;;;;;10.10;5.00;;;8.90;99.90;;;;;;5033166;28;20052;-72
2022/02/26 11:24:27;;;;;;;5.80;3.33;;;9.00;99.90;;;;;;5033018;28;20765;-72
2022/02/26 11:26:53;;;;;;;2.95;1.20;;;8.90;99.90;;;;;;5015828;28;20331;-72
2022/02/26 11:29:21;;;;;;;2.53;0.77;;;8.90;99.90;;;;;;5036517;28;20049;-72
2022/02/26 11:31:57;;;;;;;5.78;2.63;;;9.00;99.90;;;;;;5024133;28;20046;-71
2022/02/26 11:34:25;;;;;;;21.20;16.85;;;8.80;99.90;;;;;;5018502;28;20485;-72
2022/02/26 11:37:02;;;;;;;1.70;0.90;;;8.90;99.90;;;;;;5018159;28;20069;-71
2022/02/26 11:39:29;;;;;;;3.13;1.08;;;9.00;99.90;;;;;;5019228;28;20100;-72
2022/02/26 11:42:16;;;;;;;2.63;1.00;;;9.10;99.90;;;;;;5019159;28;20048;-72
2022/02/26 11:44:51;;;;;;;2.10;0.88;;;9.10;99.90;;;;;;5037173;28;20083;-72
2022/02/26 11:47:19;;;;;;;2.85;1.00;;;9.00;99.90;;;;;;5038865;28;20125;-71
2022/02/26 11:49:58;;;;;;;4.38;1.00;;;9.00;99.90;;;;;;5038303;28;20095;-72
2022/02/26 11:52:46;;;;;;;2.22;0.70;;;9.10;99.90;;;;;;5038577;28;20071;-69
2022/02/26 11:55:23;;;;;;;2.20;0.73;;;9.20;99.90;;;;;;5018380;28;20054;-70
2022/02/26 11:57:50;;;;;;;4.22;0.73;;;9.30;99.90;;;;;;5018296;28;20469;-72
2022/02/26 12:00:20;;;;;;;4.97;0.80;;;9.10;99.90;;;;;;5018499;28;20168;-72
2022/02/26 12:03:06;;;;;;;1.63;0.55;;;9.20;99.90;;;;;;5017815;28;20088;-72
2022/02/26 12:05:32;;;;;;;2.78;0.77;;;9.40;99.90;;;;;;5018642;28;20053;-72
2022/02/26 12:07:58;;;;;;;2.35;0.70;;;9.50;99.90;;;;;;5017584;28;20038;-72
2022/02/26 12:10:27;;;;;;;1.45;0.70;;;9.50;99.90;;;;;;5027141;28;20045;-72
2022/02/26 12:12:54;;;;;;;2.15;0.75;;;9.60;99.90;;;;;;5038425;28;20128;-70
2022/02/26 12:15:29;;;;;;;1.23;0.65;;;9.60;99.90;;;;;;5043702;28;20040;-71
2022/02/26 12:17:54;;;;;;;1.20;0.80;;;9.70;99.90;;;;;;5041784;28;20060;-71
2022/02/26 12:20:29;;;;;;;2.30;0.63;;;9.80;99.90;;;;;;5037466;28;20451;-72
2022/02/26 12:23:10;;;;;;;1.80;1.00;;;9.90;99.90;;;;;;5035497;28;20065;-73
2022/02/26 12:25:39;;;;;;;;;;;9.80;99.90;;;;;;5030747;28;20049;-73
2022/02/26 12:28:09;;;;;;;3.03;0.82;;;9.90;99.90;;;;;;5017452;28;19910;-72
2022/02/26 12:31:05;;;;;;;3.05;2.22;;;9.90;99.90;;;;;;5017279;28;20643;-72
2022/02/26 12:33:42;;;;;;;3.90;2.33;;;9.90;99.90;;;;;;5017276;28;20056;-72
2022/02/26 12:36:11;;;;;;;2.15;1.23;;;9.90;99.90;;;;;;5025659;28;20049;-70
2022/02/26 12:38:56;;;;;;;3.92;1.83;;;9.90;99.90;;;;;;5036769;28;20075;-70
2022/02/26 12:41:35;;;;;;;4.18;2.08;;;9.90;99.90;;;;;;5015698;28;20072;-70
2022/02/26 12:44:01;;;;;;;1.95;1.08;;;9.90;99.90;;;;;;5036972;28;20056;-70
2022/02/26 12:46:32;;;;;;;1.35;0.70;;;9.90;99.90;;;;;;5037155;28;20551;-70
2022/02/26 12:49:00;;;;;;;1.20;0.90;;;10.00;99.90;;;;;;5037203;28;20048;-70
2022/02/26 12:51:33;;;;;;;21.95;12.13;;;9.90;99.90;;;;;;5035003;28;20060;-73
2022/02/26 12:53:59;;;;;;;9.52;4.28;;;10.00;99.90;;;;;;5025998;28;20037;-74
2022/02/26 12:56:33;;;;;;;6.85;4.38;;;10.20;99.90;;;;;;5036850;28;20072;-75
2022/02/26 12:59:19;;;;;;;6.72;2.03;;;10.20;99.90;;;;;;5036583;28;20049;-70
2022/02/26 13:01:48;;;;;;;2.85;1.55;;;10.20;99.90;;;;;;4997744;28;20042;-70
2022/02/26 13:04:15;;;;;;;3.42;1.95;;;10.20;99.90;;;;;;4997461;28;20034;-70
2022/02/26 13:06:52;;;;;;;3.30;1.73;;;10.10;99.90;;;;;;4992419;28;20049;-70